Latest Weather Observations for Whyalla

IDS60801

Issued at 10:31 pm CST Monday 31 August 2015 (issued every 30 minutes, with the page automatically refreshed every 10 minutes)

About weather observations | Map of weather stations | Latest weather observations for SA | Other Formats
Station Details ID: 018120 Name: WHYALLA AERO Lat: -33.05 Lon: 137.52 Height: 6.5 m
Data from the previous 72 hours. | See also: Recent months at Whyalla
Date/Time
CST
Temp
°C
App
Temp
°C
Dew
Point
Rel
Hum
%
Delta-T
°C
Wind Press
QNH
hPa
Press
MSL
hPa
Rain
since 9 am
mm
Dir
 
Spd
km/h
Gust
km/h
Spd
kts
Gust
kts
31/10:30pm 14.6 10.5 2.5 44 5.4 N 13 15 7 8 1015.6 1015.6 0.0
31/10:00pm 16.0 11.5 2.4 40 6.1 N 15 20 8 11 1015.9 1015.9 0.0
31/09:30pm 17.1 11.9 2.3 37 6.7 N 19 24 10 13 1015.9 1015.9 0.0
31/09:00pm 15.1 11.1 3.0 44 5.4 N 13 15 7 8 1016.0 1016.0 0.0
31/08:30pm 15.2 11.3 3.4 45 5.4 N 13 17 7 9 1016.0 1016.0 0.0
31/08:00pm 14.4 10.5 3.5 48 4.9 NNW 13 15 7 8 1016.0 1016.0 0.0
31/07:30pm 16.9 13.6 2.5 38 6.5 N 9 13 5 7 1015.8 1015.8 0.0
31/07:00pm 16.4 13.1 2.4 39 6.3 NNW 9 15 5 8 1015.6 1015.6 0.0
31/06:30pm 19.0 14.9 2.0 32 7.7 N 13 17 7 9 1015.3 1015.3 0.0
31/06:00pm 20.4 15.8 1.8 29 8.5 N 15 20 8 11 1015.2 1015.2 0.0
31/05:30pm 21.7 16.9 2.4 28 9.1 NNE 17 24 9 13 1015.0 1015.0 0.0
31/05:00pm 22.5 18.0 2.1 26 9.6 N 15 20 8 11 1015.1 1015.1 0.0
31/04:30pm 22.9 17.5 1.3 24 10.0 N 19 28 10 15 1015.1 1015.1 0.0
31/04:00pm 23.2 18.3 2.1 25 10.0 NNW 17 26 9 14 1015.4 1015.4 0.0
31/03:30pm 23.3 17.9 2.2 25 10.0 NNW 20 30 11 16 1015.5 1015.5 0.0
31/03:00pm 23.2 19.1 2.1 25 9.9 NNW 13 22 7 12 1015.8 1015.8 0.0
31/02:30pm 23.1 18.3 2.6 26 9.7 NW 17 24 9 13 1016.3 1016.3 0.0
31/02:00pm 23.1 17.7 2.6 26 9.8 NNW 20 33 11 18 1016.8 1016.8 0.0
31/01:30pm 22.1 17.1 1.2 25 9.6 NNW 17 32 9 17 1017.1 1017.1 0.0
31/01:00pm 21.6 16.0 1.3 26 9.3 NNW 20 37 11 20 1017.7 1017.7 0.0
31/12:30pm 21.5 15.3 2.2 28 9.0 NW 24 35 13 19 1018.2 1018.2 0.0
31/12:00pm 20.9 14.9 3.6 32 8.2 NNW 24 35 13 19 1018.9 1018.9 0.0
31/11:30am 20.3 14.2 2.6 31 8.2 NNW 24 35 13 19 1019.3 1019.3 0.0
31/11:00am 19.5 13.9 3.2 34 7.6 N 22 30 12 16 1019.7 1019.7 0.0
31/10:30am 18.6 12.7 4.0 38 6.9 NNW 24 32 13 17 1020.0 1020.0 0.0
31/10:00am 17.3 12.0 3.2 39 6.5 N 20 28 11 15 1020.5 1020.5 0.0
31/09:30am 16.4 10.9 4.1 44 5.7 NNW 22 30 12 16 1020.6 1020.6 0.0
31/09:00am 14.4 11.0 6.0 57 4.0 N 13 20 7 11 1020.8 1020.8 0.0
31/08:30am 10.7 8.6 5.7 71 2.3 NNW 6 9 3 5 1020.8 1020.8 0.0
31/08:00am 7.9 5.4 4.7 80 1.4 NNW 7 9 4 5 1020.6 1020.6 0.0
31/07:30am 5.0 2.5 3.5 90 0.6 NW 6 7 3 4 1020.4 1020.4 0.0
31/07:00am 2.8 -0.3 1.3 90 0.6 NNW 7 9 4 5 1020.2 1020.2 0.0
31/06:30am 3.3 0.3 2.1 92 0.5 NNW 7 9 4 5 1019.9 1019.9 0.0
31/06:00am 3.0 0.0 1.8 92 0.5 N 7 9 4 5 1020.0 1020.0 0.0
31/05:30am 3.2 0.4 2.0 92 0.5 NNW 6 7 3 4 1019.9 1019.9 0.0
31/05:00am 2.9 -0.1 1.7 92 0.5 NNW 7 9 4 5 1019.9 1019.9 0.0
31/04:30am 3.0 -0.8 1.8 92 0.5 NW 11 13 6 7 1019.7 1019.7 0.0
31/04:00am 2.9 -0.9 1.7 92 0.5 NW 11 13 6 7 1019.7 1019.7 0.0
31/03:30am 2.8 -0.6 1.6 92 0.5 NW 9 11 5 6 1019.8 1019.8 0.0
31/03:00am 3.3 -0.1 1.8 90 0.6 NW 9 11 5 6 1020.1 1020.1 0.0
31/02:30am 3.7 -0.4 2.4 91 0.5 WNW 13 13 7 7 1020.6 1020.6 0.0
31/02:00am 4.3 1.0 2.7 89 0.6 NW 9 9 5 5 1020.7 1020.7 0.0
31/01:30am 4.5 1.8 2.5 87 0.8 NNW 6 11 3 6 1020.8 1020.8 0.0
31/01:00am 5.0 3.5 2.9 86 0.9 CALM 0 0 0 0 1021.1 1021.1 0.0
31/12:30am 6.2 4.2 4.2 87 0.9 NNE 4 7 2 4 1021.1 1021.1 0.0
31/12:00am 6.7 4.3 4.5 86 0.9 NNW 6 7 3 4 1021.3 1021.3 0.0
 
Date/Time
CST
Temp
°C
App
Temp
°C
Dew
Point
Rel
Hum
%
Delta-T
°C
Wind Press
QNH
hPa
Press
MSL
hPa
Rain
since 9 am
mm
Dir
 
Spd
km/h
Gust
km/h
Spd
kts
Gust
kts
30/11:30pm 7.1 3.2 5.3 88 0.8 NW 15 19 8 10 1021.8 1021.8 0.0
30/11:00pm 7.3 5.0 5.9 91 0.6 WNW 7 9 4 5 1022.0 1022.0 0.0
30/10:30pm 9.9 8.4 6.8 81 1.4 NE 4 7 2 4 1022.0 1022.0 0.0
30/10:00pm 11.4 9.8 8.6 83 1.4 NE 7 9 4 5 1021.7 1021.7 0.0
30/09:30pm 11.4 8.8 7.7 78 1.8 ENE 11 13 6 7 1021.6 1021.6 0.0
30/09:00pm 11.3 8.5 8.5 83 1.4 ENE 13 15 7 8 1021.6 1021.6 0.0
30/08:30pm 11.2 8.9 7.5 78 1.8 ENE 9 11 5 6 1021.7 1021.7 0.0
30/08:00pm 11.4 9.1 7.5 77 1.9 E 9 9 5 5 1021.8 1021.8 0.0
30/07:30pm 11.3 9.3 6.4 72 2.3 E 6 9 3 5 1021.7 1021.7 0.0
30/07:00pm 11.6 9.5 5.9 68 2.7 E 6 9 3 5 1021.6 1021.6 0.0
30/06:30pm 12.8 11.6 4.8 58 3.7 CALM 0 2 0 1 1021.5 1021.5 0.0
30/06:00pm 13.9 11.0 4.8 54 4.2 SE 9 13 5 7 1021.5 1021.5 0.0
30/05:30pm 15.1 11.8 4.8 50 4.8 SE 11 17 6 9 1021.3 1021.3 0.0
30/05:00pm 15.7 11.2 4.1 46 5.4 SE 17 20 9 11 1021.3 1021.3 0.0
30/04:30pm 16.1 11.5 3.5 43 5.8 SE 17 22 9 12 1021.3 1021.3 0.0
30/04:00pm 16.5 11.6 3.9 43 5.9 ESE 19 24 10 13 1021.3 1021.3 0.0
30/03:30pm 16.8 11.4 4.5 44 5.8 ESE 22 28 12 15 1021.4 1021.4 0.0
30/03:00pm 16.9 11.6 2.9 39 6.4 ESE 20 26 11 14 1021.6 1021.6 0.0
30/02:30pm 16.9 11.5 4.6 44 5.8 ESE 22 30 12 16 1021.8 1021.8 0.0
30/02:00pm 17.3 12.2 3.9 41 6.3 ESE 20 26 11 14 1022.1 1022.1 0.0
30/01:30pm 17.0 12.1 5.3 46 5.6 ESE 20 24 11 13 1022.5 1022.5 0.0
30/01:00pm 17.4 12.3 3.3 39 6.5 E 19 24 10 13 1023.1 1023.1 0.0
30/12:30pm 17.4 13.4 5.0 44 5.9 ESE 15 20 8 11 1023.6 1023.6 0.0
30/12:00pm 16.6 12.7 7.3 54 4.6 ESE 17 22 9 12 1024.1 1024.1 0.0
30/11:30am 17.1 14.5 6.3 49 5.3 SW 9 20 5 11 1024.6 1024.6 0.0
30/11:00am 16.6 13.6 5.9 49 5.2 ENE 11 15 6 8 1025.0 1025.0 0.0
30/10:30am 14.8 12.3 6.4 57 4.0 ESE 9 15 5 8 1025.3 1025.3 0.0
30/10:00am 14.0 11.3 7.3 64 3.3 E 11 17 6 9 1025.3 1025.3 0.0
30/09:30am 13.6 11.7 6.9 64 3.2 NNE 6 9 3 5 1025.5 1025.5 0.0
30/09:00am 11.2 10.8 8.4 83 1.4 CALM 0 0 0 0 1025.5 1025.5 0.0
30/08:30am 9.4 9.0 8.2 92 0.6 CALM 0 0 0 0 1025.5 1025.5 0.0
30/08:00am 6.6 5.8 6.3 98 0.1 CALM 0 0 0 0 1025.5 1025.5 0.0
30/07:30am 4.3 1.9 4.2 99 0.0 NW 6 9 3 5 1025.3 1025.3 0.0
30/07:00am 2.2 -1.2 1.9 98 0.1 NNW 9 9 5 5 1025.1 1025.1 0.0
30/06:30am 2.3 -1.1 2.0 98 0.1 NNW 9 9 5 5 1025.0 1025.0 0.0
30/06:00am 2.6 -0.4 2.3 98 0.1 NW 7 9 4 5 1024.8 1024.8 0.0
30/05:30am 3.0 -0.3 2.7 98 0.1 NW 9 11 5 6 1024.8 1024.8 0.0
30/05:00am 3.3 0.1 3.0 98 0.1 NNW 9 11 5 6 1024.6 1024.6 0.0
30/04:30am 3.8 0.7 3.5 98 0.1 NW 9 11 5 6 1024.4 1024.4 0.0
30/04:00am 4.3 0.9 4.2 99 0.0 NW 11 13 6 7 1024.5 1024.5 0.0
30/03:30am 3.8 1.1 3.5 98 0.1 NW 7 9 4 5 1024.6 1024.6 0.0
30/03:00am 3.9 1.1 3.3 96 0.2 WNW 7 9 4 5 1024.8 1024.8 0.0
30/02:30am 4.7 2.1 4.3 97 0.2 WNW 7 7 4 4 1025.1 1025.1 0.0
30/02:00am 5.3 3.0 4.9 97 0.2 W 6 9 3 5 1025.3 1025.3 0.0
30/01:30am 5.0 2.4 4.4 96 0.3 W 7 9 4 5 1025.6 1025.6 0.0
30/01:00am 5.2 1.9 4.6 96 0.3 WSW 11 13 6 7 1025.8 1025.8 0.0
30/12:30am 5.1 2.2 4.4 95 0.3 WSW 9 13 5 7 1026.0 1026.0 0.0
30/12:00am 5.1 3.4 4.1 93 0.4 SSW 2 9 1 5 1026.1 1026.1 0.0
 
Date/Time
CST
Temp
°C
App
Temp
°C
Dew
Point
Rel
Hum
%
Delta-T
°C
Wind Press
QNH
hPa
Press
MSL
hPa
Rain
since 9 am
mm
Dir
 
Spd
km/h
Gust
km/h
Spd
kts
Gust
kts
29/11:30pm 6.3 5.1 4.8 90 0.6 CALM 0 4 0 2 1026.1 1026.1 0.0
29/11:00pm 8.5 6.4 6.8 89 0.8 SSE 7 9 4 5 1026.2 1026.2 0.0
29/10:30pm 10.1 8.3 8.0 87 1.0 SSE 7 9 4 5 1026.4 1026.4 0.0
29/10:00pm 10.6 8.4 8.0 84 1.3 SSE 9 13 5 7 1026.5 1026.5 0.0
29/09:30pm 11.3 8.4 8.0 80 1.6 SSE 13 20 7 11 1026.5 1026.5 0.0
29/09:00pm 11.5 8.1 7.8 78 1.8 SSE 15 19 8 10 1026.5 1026.5 0.0
29/08:30pm 11.7 7.8 8.7 82 1.5 S 19 26 10 14 1026.3 1026.3 0.0
29/08:00pm 11.4 8.1 8.1 80 1.6 S 15 19 8 10 1026.1 1026.1 0.0
29/07:30pm 11.4 8.1 7.9 79 1.7 S 15 19 8 10 1025.9 1025.9 0.0
29/07:00pm 11.2 8.2 7.7 79 1.7 S 13 17 7 9 1025.8 1025.8 0.0
29/06:30pm 11.3 8.6 7.4 77 1.9 S 11 15 6 8 1025.6 1025.6 0.0
29/06:00pm 12.3 9.1 7.0 70 2.5 S 13 17 7 9 1025.4 1025.4 0.0
29/05:30pm 13.3 10.0 6.6 64 3.2 S 13 19 7 10 1025.3 1025.3 0.0
29/05:00pm 13.9 9.6 5.3 56 4.0 SSE 17 22 9 12 1025.1 1025.1 0.0
29/04:30pm 14.4 9.7 5.2 54 4.3 SSE 19 22 10 12 1025.0 1025.0 0.0
29/04:00pm 14.5 9.4 3.9 49 4.8 S 20 24 11 13 1025.0 1025.0 0.0
29/03:30pm 14.8 10.0 4.5 50 4.8 S 19 26 10 14 1025.1 1025.1 0.0
29/03:00pm 14.4 9.5 5.0 53 4.4 SSE 20 26 11 14 1025.2 1025.2 0.0
29/02:30pm 14.7 10.4 5.2 53 4.4 SSE 17 22 9 12 1025.4 1025.4 0.0
29/02:00pm 14.8 11.1 6.1 56 4.2 SSE 15 22 8 12 1025.6 1025.6 0.0
29/01:30pm 14.3 10.9 5.9 57 4.0 SE 13 22 7 12 1025.9 1025.9 0.0
29/01:00pm 14.5 10.9 4.8 52 4.5 SSE 13 20 7 11 1026.1 1026.1 0.0
29/12:30pm 14.2 11.0 5.0 54 4.3 SSE 11 17 6 9 1026.8 1026.8 0.0
29/12:00pm 13.9 11.0 6.7 62 3.5 SSE 11 17 6 9 1027.1 1027.1 0.0
29/11:30am 14.2 11.5 7.3 63 3.4 SE 11 17 6 9 1027.5 1027.5 0.0
29/11:00am 13.9 11.0 6.3 60 3.6 SE 11 19 6 10 1027.6 1027.6 0.0
29/10:30am 13.5 11.0 6.6 63 3.3 SE 9 15 5 8 1027.7 1027.7 0.0
29/10:00am 13.0 11.2 7.9 71 2.5 SSE 7 11 4 6 1027.9 1027.9 0.0
29/09:30am 12.6 10.6 7.1 69 2.6 SSW 7 13 4 7 1028.0 1028.0 0.0
29/09:00am 11.9 10.4 8.6 80 1.6 SW 6 9 3 5 1027.9 1027.9 0.0
29/08:30am 10.3 8.8 8.4 88 0.9 SW 6 7 3 4 1027.7 1027.7 0.0
29/08:00am 8.1 7.6 7.8 98 0.1 CALM 0 0 0 0 1027.5 1027.5 0.0
29/07:30am 4.9 2.6 4.8 99 0.0 WSW 6 9 3 5 1027.1 1027.1 0.0
29/07:00am 3.1 -0.1 3.0 99 0.0 WNW 9 11 5 6 1026.9 1026.9 0.0
29/06:30am 2.7 -0.2 2.6 99 0.0 NW 7 9 4 5 1026.7 1026.7 0.0
29/06:00am 2.6 -0.4 2.3 98 0.1 NW 7 9 4 5 1026.4 1026.4 0.0
29/05:30am 3.3 0.1 3.2 99 0.0 W 9 11 5 6 1026.3 1026.3 0.0
29/05:00am 2.6 -0.7 2.2 97 0.2 WNW 9 9 5 5 1026.4 1026.4 0.0
29/04:30am 2.8 0.8 2.4 97 0.2 SSE 2 6 1 3 1026.3 1026.3 0.0
29/04:00am 2.8 0.4 2.2 96 0.2 SSE 4 6 2 3 1026.4 1026.4 0.0
29/03:30am 3.1 1.5 2.2 94 0.4 CALM 0 6 0 3 1026.6 1026.6 0.0
29/03:00am 4.2 1.4 3.3 94 0.4 ESE 7 11 4 6 1026.8 1026.8 0.0
29/02:30am 4.2 1.5 2.9 91 0.5 SSE 6 9 3 5 1026.9 1026.9 0.0
29/02:00am 5.7 3.4 4.8 94 0.4 SE 6 7 3 4 1027.2 1027.2 0.0
29/01:30am 5.3 2.8 3.8 90 0.6 SSE 6 7 3 4 1027.5 1027.5 0.0
29/01:00am 6.4 4.1 5.0 91 0.6 SSE 6 7 3 4 1027.6 1027.6 0.0
29/12:30am 7.2 5.5 6.0 92 0.5 SSE 4 7 2 4 1027.8 1027.8 0.0
29/12:00am 9.5 7.6 7.4 87 1.0 ESE 7 9 4 5 1027.8 1027.8 0.0
 
Date/Time
CST
Temp
°C
App
Temp
°C
Dew
Point
Rel
Hum
%
Delta-T
°C
Wind Press
QNH
hPa
Press
MSL
hPa
Rain
since 9 am
mm
Dir
 
Spd
km/h
Gust
km/h
Spd
kts
Gust
kts
28/11:30pm 10.2 7.7 8.0 86 1.1 SE 11 15 6 8 1027.8 1027.8 0.0
28/11:00pm 10.7 8.2 8.3 85 1.2 SE 11 15 6 8 1028.0 1028.0 0.0

Other Formats:

Comma delimited format used in spreadsheet applications
http://www.bom.gov.au/fwo/IDS60801/IDS60801.95664.axf

JavaScript Object Notation format (JSON) in row-major order
http://www.bom.gov.au/fwo/IDS60801/IDS60801.95664.json